createdAt,value
2019-02-11T00:01:49.657Z,94.70
2019-02-11T00:04:18.417Z,94.50
2019-02-11T00:06:47.173Z,94.80
2019-02-11T00:09:15.926Z,94.60
2019-02-11T00:11:44.681Z,94.60
2019-02-11T00:14:13.417Z,94.80
2019-02-11T00:16:42.275Z,95.50
2019-02-11T00:19:12.396Z,95.60
2019-02-11T00:21:41.193Z,96.00
2019-02-11T00:24:09.963Z,96.50
2019-02-11T00:26:40.374Z,96.70
2019-02-11T00:29:09.122Z,97.40
2019-02-11T00:31:37.889Z,97.90
2019-02-11T00:34:06.636Z,98.60
2019-02-11T00:36:35.382Z,99.10
2019-02-11T00:39:06.023Z,99.30
2019-02-11T00:41:34.781Z,99.30
2019-02-11T00:44:03.528Z,99.70
2019-02-11T00:46:32.318Z,99.80
2019-02-11T00:49:01.174Z,99.90
2019-02-11T00:51:31.296Z,99.90
2019-02-11T00:54:00.274Z,99.90
2019-02-11T00:56:29.033Z,99.90
2019-02-11T00:58:57.772Z,99.90
2019-02-11T01:01:26.530Z,99.90
2019-02-11T01:03:55.366Z,99.90
2019-02-11T01:06:24.117Z,99.90
2019-02-11T01:08:52.870Z,99.90
2019-02-11T01:11:21.617Z,99.90
2019-02-11T01:13:51.671Z,99.90
2019-02-11T01:16:21.414Z,99.90
2019-02-11T01:18:50.156Z,99.90
2019-02-11T01:21:18.901Z,99.90
2019-02-11T01:23:47.665Z,99.90
2019-02-11T01:26:16.416Z,99.90
2019-02-11T01:28:45.180Z,99.90
2019-02-11T01:31:13.924Z,99.90
2019-02-11T01:33:42.685Z,99.90
2019-02-11T01:36:11.424Z,99.90
2019-02-11T01:38:40.516Z,99.90
2019-02-11T01:41:09.279Z,99.90
2019-02-11T01:43:38.037Z,99.90
2019-02-11T01:46:06.790Z,99.90
2019-02-11T01:48:35.537Z,99.90
2019-02-11T01:51:04.468Z,99.90
2019-02-11T01:53:33.244Z,99.90
2019-02-11T01:56:02.025Z,99.90
2019-02-11T01:58:30.808Z,99.90
2019-02-11T02:00:59.703Z,99.90
2019-02-11T02:03:28.465Z,99.90
2019-02-11T02:05:57.372Z,99.90
2019-02-11T02:08:26.193Z,99.90
2019-02-11T02:10:54.955Z,99.90
2019-02-11T02:13:23.731Z,99.90
2019-02-11T02:15:52.535Z,99.90
2019-02-11T02:18:21.349Z,99.90
2019-02-11T02:20:50.115Z,99.90
2019-02-11T02:23:18.840Z,99.90
2019-02-11T02:25:47.588Z,99.90
2019-02-11T02:28:17.268Z,99.90
2019-02-11T02:30:46.015Z,99.90
2019-02-11T02:33:14.744Z,99.90
2019-02-11T02:35:43.498Z,99.90
2019-02-11T02:38:12.248Z,99.90
2019-02-11T02:40:41.358Z,99.90
2019-02-11T02:43:10.107Z,99.90
2019-02-11T02:45:38.865Z,99.90
2019-02-11T02:48:07.614Z,99.90
2019-02-11T02:50:36.358Z,99.90
2019-02-11T02:53:05.155Z,99.90
2019-02-11T02:55:33.915Z,99.90
2019-02-11T02:58:02.683Z,99.90
2019-02-11T03:00:31.517Z,99.90
2019-02-11T03:03:00.270Z,99.90
2019-02-11T03:05:29.016Z,99.90
2019-02-11T03:07:57.767Z,99.90
2019-02-11T03:10:26.531Z,99.90
2019-02-11T03:12:55.269Z,99.90
2019-02-11T03:15:24.018Z,99.90
2019-02-11T03:17:52.780Z,99.90
2019-02-11T03:20:21.553Z,99.90
2019-02-11T03:22:50.310Z,99.90
2019-02-11T03:25:19.090Z,99.90
2019-02-11T03:27:47.901Z,99.90
2019-02-11T03:30:16.657Z,99.90
2019-02-11T03:32:45.409Z,99.90
2019-02-11T03:35:14.228Z,99.90
2019-02-11T03:37:43.040Z,99.90
2019-02-11T03:40:12.034Z,99.90
2019-02-11T03:42:40.792Z,99.90
2019-02-11T03:45:10.284Z,99.90
2019-02-11T03:47:39.029Z,99.90
2019-02-11T03:50:08.376Z,99.90
2019-02-11T03:52:37.135Z,99.90
2019-02-11T03:55:06.263Z,99.90
2019-02-11T03:57:35.102Z,99.90
2019-02-11T04:00:04.705Z,99.90
2019-02-11T04:02:34.207Z,99.90
2019-02-11T04:05:02.947Z,99.90
2019-02-11T04:07:31.724Z,99.90
2019-02-11T04:10:00.503Z,99.90
2019-02-11T04:12:29.308Z,99.90
2019-02-11T04:14:58.078Z,99.90
2019-02-11T04:17:26.827Z,99.90
2019-02-11T04:19:55.560Z,99.90
2019-02-11T04:22:24.342Z,99.90
2019-02-11T04:24:53.070Z,99.90
2019-02-11T04:27:21.829Z,99.90
2019-02-11T04:29:50.577Z,99.90
2019-02-11T04:32:19.317Z,99.90
2019-02-11T04:34:48.078Z,99.90
2019-02-11T04:37:16.850Z,99.90
2019-02-11T04:39:45.598Z,99.90
2019-02-11T04:42:14.368Z,99.90
2019-02-11T04:44:43.125Z,99.90
2019-02-11T04:47:11.888Z,99.90
2019-02-11T04:49:40.625Z,99.90
2019-02-11T04:52:10.474Z,99.90
2019-02-11T04:54:39.232Z,99.90
2019-02-11T04:57:07.995Z,99.90
2019-02-11T04:59:36.730Z,99.90
2019-02-11T05:02:05.486Z,99.90
2019-02-11T05:04:34.257Z,99.90
2019-02-11T05:07:03.006Z,99.90
2019-02-11T05:09:31.742Z,99.90
2019-02-11T05:12:00.489Z,99.90
2019-02-11T05:14:30.262Z,99.90
2019-02-11T05:16:59.028Z,99.90
2019-02-11T05:19:27.814Z,99.90
2019-02-11T05:21:56.581Z,99.90
2019-02-11T05:24:25.317Z,99.90
2019-02-11T05:26:54.088Z,99.90
2019-02-11T05:29:22.839Z,99.90
2019-02-11T05:31:51.586Z,99.90
2019-02-11T05:34:20.387Z,99.90
2019-02-11T05:36:50.214Z,99.90
2019-02-11T05:39:18.996Z,99.90
2019-02-11T05:41:47.748Z,99.90
2019-02-11T05:44:16.527Z,99.90
2019-02-11T05:46:45.286Z,99.90
2019-02-11T05:49:14.051Z,99.90
2019-02-11T05:51:42.813Z,99.90
2019-02-11T05:54:11.659Z,99.90
2019-02-11T05:56:40.398Z,99.90
2019-02-11T05:59:09.167Z,99.90
2019-02-11T06:01:37.908Z,99.90
2019-02-11T06:04:07.313Z,99.90
2019-02-11T06:06:36.084Z,99.90
2019-02-11T06:09:06.101Z,99.90
2019-02-11T06:11:34.838Z,99.90
2019-02-11T06:14:03.596Z,99.90
2019-02-11T06:16:32.341Z,99.90
2019-02-11T06:19:01.108Z,99.90
2019-02-11T06:21:29.846Z,99.90
2019-02-11T06:23:58.607Z,99.90
2019-02-11T06:26:28.168Z,99.90
2019-02-11T06:28:56.934Z,99.90
2019-02-11T06:31:25.690Z,99.90
2019-02-11T06:33:54.436Z,99.90
2019-02-11T06:36:23.174Z,99.90
2019-02-11T06:38:52.006Z,99.90
2019-02-11T06:41:20.752Z,99.90
2019-02-11T06:43:49.515Z,99.90
2019-02-11T06:46:18.280Z,99.90
2019-02-11T06:48:47.020Z,99.90
2019-02-11T06:51:15.773Z,99.90
2019-02-11T06:53:44.542Z,99.90
2019-02-11T06:56:13.303Z,99.80
2019-02-11T06:58:42.049Z,99.80
2019-02-11T07:01:10.785Z,99.90
2019-02-11T07:03:39.542Z,99.90
2019-02-11T07:06:08.285Z,99.40
2019-02-11T07:08:37.040Z,99.70
2019-02-11T07:11:05.787Z,98.90
2019-02-11T07:13:34.534Z,98.90
2019-02-11T07:16:03.292Z,99.10
2019-02-11T07:18:32.117Z,99.50
2019-02-11T07:21:01.543Z,98.80
2019-02-11T07:23:30.417Z,99.00
2019-02-11T07:25:59.161Z,99.00
2019-02-11T07:28:28.029Z,98.70
2019-02-11T07:30:56.789Z,98.80
2019-02-11T07:33:25.525Z,98.80
2019-02-11T07:35:54.506Z,98.80
2019-02-11T07:38:24.367Z,98.60
2019-02-11T07:40:53.377Z,98.60
2019-02-11T07:43:26.531Z,98.40
2019-02-11T07:46:06.156Z,98.60
2019-02-11T07:48:35.012Z,98.40
2019-02-11T07:51:03.833Z,98.50
2019-02-11T07:53:32.623Z,97.90
2019-02-11T07:56:01.354Z,98.20
2019-02-11T07:58:30.118Z,98.00
2019-02-11T08:00:58.885Z,98.00
2019-02-11T08:03:27.648Z,98.00
2019-02-11T08:05:56.414Z,97.80
2019-02-11T08:08:25.160Z,97.40
2019-02-11T08:10:54.372Z,97.30
2019-02-11T08:13:24.212Z,96.90
2019-02-11T08:15:54.419Z,96.90
2019-02-11T08:18:23.168Z,97.10
2019-02-11T08:20:51.916Z,96.60
2019-02-11T08:23:20.661Z,96.50
2019-02-11T08:25:49.424Z,96.90
2019-02-11T08:28:19.687Z,96.60
2019-02-11T08:30:48.784Z,96.50
2019-02-11T08:33:17.618Z,97.20
2019-02-11T08:35:46.381Z,97.20
2019-02-11T08:38:15.148Z,96.60
2019-02-11T08:40:43.950Z,97.00
2019-02-11T08:43:12.876Z,96.10
2019-02-11T08:45:46.809Z,95.70
2019-02-11T08:48:12.240Z,96.00
2019-02-11T08:50:41.481Z,95.70
2019-02-11T08:53:10.231Z,96.00
2019-02-11T08:55:39.044Z,96.00
2019-02-11T08:58:07.981Z,95.60
2019-02-11T09:00:37.174Z,95.50
2019-02-11T09:03:05.931Z,95.20
2019-02-11T09:05:36.230Z,95.50
2019-02-11T09:08:05.136Z,95.80
2019-02-11T09:10:34.022Z,95.70
2019-02-11T09:13:02.925Z,95.70
2019-02-11T09:15:31.815Z,94.70
2019-02-11T09:18:00.649Z,95.10
2019-02-11T09:20:29.402Z,95.20
2019-02-11T09:22:58.156Z,95.10
2019-02-11T09:25:30.992Z,95.00
2019-02-11T09:27:59.750Z,95.60
2019-02-11T09:30:28.503Z,95.50
2019-02-11T09:32:57.330Z,94.50
2019-02-11T09:35:26.161Z,95.30
2019-02-11T09:37:54.921Z,93.90
2019-02-11T09:40:23.666Z,94.90
2019-02-11T09:42:52.422Z,94.90
2019-02-11T09:45:21.740Z,94.10
2019-02-11T09:47:50.578Z,94.00
2019-02-11T09:50:34.610Z,94.80
2019-02-11T09:53:04.383Z,94.30
2019-02-11T09:55:33.808Z,93.60
2019-02-11T09:58:02.576Z,94.60
2019-02-11T10:00:31.476Z,94.30
2019-02-11T10:03:00.244Z,93.80
2019-02-11T10:05:28.993Z,93.50
2019-02-11T10:07:57.756Z,92.70
2019-02-11T10:10:30.051Z,91.60
2019-02-11T10:12:58.814Z,91.90
2019-02-11T10:15:27.624Z,88.60
2019-02-11T10:17:56.472Z,87.80
2019-02-11T10:20:25.304Z,88.50
2019-02-11T10:22:54.093Z,88.30
2019-02-11T10:25:24.601Z,88.80
2019-02-11T10:27:55.250Z,86.10
2019-02-11T10:30:24.009Z,87.80
2019-02-11T10:32:52.761Z,87.40
2019-02-11T10:35:21.598Z,81.20
2019-02-11T10:37:50.471Z,83.40
2019-02-11T10:40:20.400Z,77.50
2019-02-11T10:42:49.164Z,73.40
2019-02-11T10:45:17.914Z,69.20
2019-02-11T10:47:46.753Z,71.50
2019-02-11T10:50:16.097Z,71.20
2019-02-11T10:52:45.036Z,70.50
2019-02-11T10:55:15.000Z,74.20
2019-02-11T10:57:44.366Z,79.00
2019-02-11T11:00:16.120Z,78.50
2019-02-11T11:02:44.897Z,81.50
2019-02-11T11:05:14.466Z,82.60
2019-02-11T11:07:43.519Z,84.20
2019-02-11T11:10:20.460Z,82.70
2019-02-11T11:12:49.310Z,81.10
2019-02-11T11:15:18.882Z,82.80
2019-02-11T11:17:47.810Z,81.20
2019-02-11T11:20:16.961Z,84.80
2019-02-11T11:22:45.977Z,82.40
2019-02-11T11:25:16.149Z,79.80
2019-02-11T11:27:45.038Z,81.10
2019-02-11T11:30:14.497Z,78.80
2019-02-11T11:32:45.940Z,78.10
2019-02-11T11:35:15.834Z,77.30
2019-02-11T11:37:44.840Z,76.20
2019-02-11T11:40:15.465Z,77.90
2019-02-11T11:42:44.377Z,79.60
2019-02-11T11:45:15.234Z,79.00
2019-02-11T11:47:45.816Z,80.10
2019-02-11T11:50:15.648Z,81.20
2019-02-11T11:52:44.677Z,81.10
2019-02-11T11:55:14.297Z,81.70
2019-02-11T11:57:43.180Z,83.00
2019-02-11T12:00:25.991Z,82.60
2019-02-11T12:03:02.794Z,83.80
2019-02-11T12:05:26.506Z,84.10
2019-02-11T12:07:55.259Z,83.60
2019-02-11T12:10:24.252Z,82.70
2019-02-11T12:12:53.211Z,85.30
2019-02-11T12:15:23.162Z,85.50
2019-02-11T12:17:52.206Z,83.30
2019-02-11T12:20:21.045Z,83.70
2019-02-11T12:22:50.277Z,82.20
2019-02-11T12:25:21.075Z,80.00
2019-02-11T12:27:49.834Z,81.90
2019-02-11T12:30:22.697Z,80.70
2019-02-11T12:32:54.360Z,80.70
2019-02-11T12:35:22.157Z,82.10
2019-02-11T12:37:51.219Z,82.20
2019-02-11T12:40:20.380Z,83.00
2019-02-11T12:42:52.378Z,77.00
2019-02-11T12:45:21.113Z,69.80
2019-02-11T12:47:49.875Z,66.00
2019-02-11T12:50:18.800Z,65.60
2019-02-11T12:52:48.834Z,69.10
2019-02-11T12:55:17.845Z,67.60
2019-02-11T12:57:46.804Z,69.70
2019-02-11T13:00:21.598Z,66.90
2019-02-11T13:02:50.528Z,66.90
2019-02-11T13:05:22.915Z,67.50
2019-02-11T13:07:50.519Z,67.90
2019-02-11T13:10:20.596Z,67.60
2019-02-11T13:12:49.611Z,69.20
2019-02-11T13:15:53.314Z,72.00
2019-02-11T13:17:50.950Z,73.30
2019-02-11T13:20:22.285Z,74.40
2019-02-11T13:22:51.084Z,75.30
2019-02-11T13:25:20.005Z,75.30
2019-02-11T13:27:49.069Z,73.30
2019-02-11T13:30:19.368Z,72.50
2019-02-11T13:32:48.255Z,70.60
2019-02-11T13:35:17.025Z,71.10
2019-02-11T13:37:45.868Z,66.00
2019-02-11T13:40:16.531Z,63.50
2019-02-11T13:42:45.493Z,57.60
2019-02-11T13:45:16.974Z,60.00
2019-02-11T13:47:54.998Z,61.50
2019-02-11T13:50:21.763Z,62.40
2019-02-11T13:52:51.759Z,64.60
2019-02-11T13:55:23.458Z,65.50
2019-02-11T13:57:52.749Z,66.80
2019-02-11T14:00:28.481Z,69.60
2019-02-11T14:02:57.616Z,70.70
2019-02-11T14:05:27.699Z,70.80
2019-02-11T14:07:57.781Z,72.40
2019-02-11T14:10:26.700Z,74.20
2019-02-11T14:12:55.685Z,74.20
2019-02-11T14:15:24.579Z,74.80
2019-02-11T14:18:10.373Z,74.70
2019-02-11T14:20:25.354Z,74.20
2019-02-11T14:22:54.261Z,71.10
2019-02-11T14:25:40.353Z,71.40
2019-02-11T14:27:55.408Z,70.90
2019-02-11T14:30:24.318Z,71.60
2019-02-11T14:32:54.473Z,72.30
2019-02-11T14:35:23.234Z,71.60
2019-02-11T14:37:52.106Z,72.50
2019-02-11T14:40:21.119Z,72.90
2019-02-11T14:42:49.930Z,74.10
2019-02-11T14:45:18.690Z,75.10
2019-02-11T14:47:47.810Z,76.60
2019-02-11T14:50:16.682Z,76.90
2019-02-11T14:52:45.441Z,77.10
2019-02-11T14:55:15.525Z,77.20
2019-02-11T14:57:45.390Z,78.60
2019-02-11T15:00:18.356Z,79.20
2019-02-11T15:02:47.741Z,79.10
2019-02-11T15:05:18.904Z,79.80
2019-02-11T15:07:47.874Z,80.90
2019-02-11T15:10:16.857Z,81.40
2019-02-11T15:12:45.686Z,81.20
2019-02-11T15:15:14.889Z,81.90
2019-02-11T15:17:43.738Z,81.70
2019-02-11T15:20:13.565Z,82.20
2019-02-11T15:22:42.507Z,82.60
2019-02-11T15:25:14.521Z,82.40
2019-02-11T15:27:43.359Z,82.20
2019-02-11T15:30:14.554Z,82.20
2019-02-11T15:32:44.196Z,83.20
2019-02-11T15:35:13.211Z,82.20
2019-02-11T15:37:42.088Z,82.90
2019-02-11T15:40:13.189Z,82.60
2019-02-11T15:42:44.000Z,83.10
2019-02-11T15:45:14.300Z,82.40
2019-02-11T15:47:43.206Z,82.30
2019-02-11T15:50:12.866Z,83.30
2019-02-11T15:52:41.746Z,83.70
2019-02-11T15:55:12.883Z,84.70
2019-02-11T15:57:41.712Z,86.30
2019-02-11T16:00:13.241Z,85.80
2019-02-11T16:02:42.096Z,87.10
2019-02-11T16:05:15.880Z,87.00
2019-02-11T16:07:41.750Z,87.80
2019-02-11T16:10:12.692Z,89.50
2019-02-11T16:12:43.572Z,89.10
2019-02-11T16:15:12.865Z,88.30
2019-02-11T16:17:42.876Z,88.00
2019-02-11T16:20:14.409Z,88.50
2019-02-11T16:22:43.198Z,89.90
2019-02-11T16:25:12.550Z,88.90
2019-02-11T16:27:41.393Z,90.30
2019-02-11T16:30:14.841Z,91.30
2019-02-11T16:32:43.766Z,92.20
2019-02-11T16:35:13.296Z,92.90
2019-02-11T16:37:42.138Z,93.80
2019-02-11T16:40:13.954Z,94.90
2019-02-11T16:42:42.897Z,95.40
2019-02-11T16:45:11.934Z,95.40
2019-02-11T16:47:40.854Z,95.70
2019-02-11T16:50:10.247Z,95.20
2019-02-11T16:52:39.410Z,95.10
2019-02-11T16:55:14.323Z,95.30
2019-02-11T16:57:43.077Z,95.10
2019-02-11T17:00:15.950Z,95.40
2019-02-11T17:02:44.922Z,95.50
2019-02-11T17:05:14.117Z,95.70
2019-02-11T17:07:42.926Z,96.30
2019-02-11T17:10:12.393Z,95.90
2019-02-11T17:12:41.361Z,96.60
2019-02-11T17:15:15.144Z,96.20
2019-02-11T17:17:44.048Z,96.40
2019-02-11T17:20:13.698Z,96.30
2019-02-11T17:22:42.589Z,96.40
2019-02-11T17:25:11.721Z,96.70
2019-02-11T17:27:40.679Z,96.50
2019-02-11T17:30:12.388Z,96.30
2019-02-11T17:32:41.489Z,96.20
2019-02-11T17:35:10.487Z,96.30
2019-02-11T17:37:39.329Z,96.50
2019-02-11T17:40:09.350Z,96.20
2019-02-11T17:42:38.270Z,96.70
2019-02-11T17:45:10.991Z,96.60
2019-02-11T17:47:40.147Z,95.40
2019-02-11T17:50:10.040Z,95.00
2019-02-11T17:52:39.301Z,95.20
2019-02-11T17:55:10.901Z,95.00
2019-02-11T17:57:41.384Z,95.20
2019-02-11T18:00:16.262Z,94.80
2019-02-11T18:02:45.505Z,95.10
2019-02-11T18:05:14.368Z,95.10
2019-02-11T18:07:43.174Z,95.00
2019-02-11T18:10:12.092Z,94.60
2019-02-11T18:12:40.883Z,94.70
2019-02-11T18:15:10.462Z,94.90
2019-02-11T18:17:39.322Z,94.70
2019-02-11T18:20:08.405Z,94.80
2019-02-11T18:22:37.220Z,95.00
2019-02-11T18:25:06.490Z,94.50
2019-02-11T18:27:35.628Z,94.30
2019-02-11T18:30:06.877Z,94.70
2019-02-11T18:32:35.648Z,94.70
2019-02-11T18:35:06.010Z,95.10
2019-02-11T18:37:35.078Z,95.30
2019-02-11T18:40:06.378Z,94.90
2019-02-11T18:42:35.938Z,95.10
2019-02-11T18:45:05.982Z,95.10
2019-02-11T18:47:34.861Z,95.20
2019-02-11T18:50:08.049Z,95.70
2019-02-11T18:52:37.477Z,95.60
2019-02-11T18:55:12.486Z,96.00
2019-02-11T18:57:44.875Z,96.40
2019-02-11T19:00:15.753Z,96.10
2019-02-11T19:02:45.239Z,95.70
2019-02-11T19:05:15.269Z,95.60
2019-02-11T19:07:44.160Z,96.20
2019-02-11T19:10:13.323Z,96.00
2019-02-11T19:12:42.142Z,96.10
2019-02-11T19:15:12.178Z,95.90
2019-02-11T19:17:41.203Z,95.70
2019-02-11T19:20:11.099Z,96.00
2019-02-11T19:22:39.853Z,96.60
2019-02-11T19:25:09.370Z,96.70
2019-02-11T19:27:38.290Z,97.10
2019-02-11T19:30:10.431Z,97.10
2019-02-11T19:32:39.164Z,96.70
2019-02-11T19:35:08.233Z,96.70
2019-02-11T19:37:36.944Z,96.60
2019-02-11T19:40:07.030Z,96.90
2019-02-11T19:42:36.914Z,97.00
2019-02-11T19:45:05.941Z,97.30
2019-02-11T19:47:36.751Z,97.40
2019-02-11T19:50:07.988Z,97.40
2019-02-11T19:52:36.957Z,97.40
2019-02-11T19:55:10.712Z,97.80
2019-02-11T19:57:39.890Z,98.10
2019-02-11T20:00:19.722Z,98.00
2019-02-11T20:02:48.801Z,98.40
2019-02-11T20:05:18.443Z,98.50
2019-02-11T20:07:47.361Z,98.80
2019-02-11T20:10:16.888Z,98.50
2019-02-11T20:12:45.640Z,98.40
2019-02-11T20:15:19.261Z,98.60
2019-02-11T20:17:48.281Z,98.60
2019-02-11T20:20:19.330Z,98.70
2019-02-11T20:22:48.280Z,98.80
2019-02-11T20:25:18.330Z,98.70
2019-02-11T20:27:47.346Z,98.70
2019-02-11T20:30:18.334Z,99.20
2019-02-11T20:32:47.431Z,99.30
2019-02-11T20:35:16.853Z,99.60
2019-02-11T20:37:45.940Z,99.30
2019-02-11T20:40:19.640Z,99.40
2019-02-11T20:42:48.772Z,99.40
2019-02-11T20:45:20.237Z,99.30
2019-02-11T20:47:49.072Z,99.80
2019-02-11T20:50:17.925Z,99.90
2019-02-11T20:52:46.679Z,99.90
2019-02-11T20:55:15.652Z,99.90
2019-02-11T20:57:44.437Z,99.90
2019-02-11T21:00:16.354Z,99.90
2019-02-11T21:02:45.191Z,99.80
2019-02-11T21:05:14.247Z,99.90
2019-02-11T21:07:43.159Z,99.90
2019-02-11T21:10:14.113Z,99.90
2019-02-11T21:12:42.944Z,99.90
2019-02-11T21:15:13.024Z,99.90
2019-02-11T21:17:41.801Z,99.90
2019-02-11T21:20:17.574Z,99.90
2019-02-11T21:22:45.004Z,99.90
2019-02-11T21:25:14.817Z,99.90
2019-02-11T21:27:43.617Z,99.90
2019-02-11T21:30:12.612Z,99.90
2019-02-11T21:32:41.689Z,99.90
2019-02-11T21:35:11.541Z,99.90
2019-02-11T21:37:40.684Z,99.90
2019-02-11T21:40:09.724Z,99.90
2019-02-11T21:42:39.101Z,99.90
2019-02-11T21:45:09.228Z,99.90
2019-02-11T21:47:38.280Z,99.90
2019-02-11T21:50:09.062Z,99.90
2019-02-11T21:52:43.114Z,99.90
2019-02-11T21:55:19.279Z,99.90
2019-02-11T21:57:50.508Z,99.90
2019-02-11T22:00:21.728Z,99.90
2019-02-11T22:02:52.397Z,99.90
2019-02-11T22:05:28.082Z,99.90
2019-02-11T22:07:58.971Z,99.90
2019-02-11T22:10:30.067Z,99.90
2019-02-11T22:12:59.213Z,99.90
2019-02-11T22:15:27.978Z,99.90
2019-02-11T22:17:56.794Z,99.90
2019-02-11T22:20:25.553Z,99.90
2019-02-11T22:22:54.681Z,99.90
2019-02-11T22:25:23.898Z,99.90
2019-02-11T22:27:52.831Z,99.90
2019-02-11T22:30:21.789Z,99.90
2019-02-11T22:32:50.614Z,99.90
2019-02-11T22:35:19.376Z,99.90
2019-02-11T22:37:48.814Z,99.90
2019-02-11T22:40:18.241Z,99.90
2019-02-11T22:42:47.068Z,99.90
2019-02-11T22:45:19.510Z,99.90
2019-02-11T22:47:48.646Z,99.90
2019-02-11T22:50:18.015Z,99.90
2019-02-11T22:52:46.986Z,99.90
2019-02-11T22:55:18.453Z,99.90
2019-02-11T22:57:47.780Z,99.90
2019-02-11T23:00:54.002Z,99.90
2019-02-11T23:03:22.956Z,99.90
2019-02-11T23:05:52.372Z,99.90
2019-02-11T23:08:24.349Z,99.90
2019-02-11T23:10:53.379Z,99.90
2019-02-11T23:13:22.345Z,99.90
2019-02-11T23:15:51.138Z,99.90
2019-02-11T23:18:21.569Z,99.90
2019-02-11T23:20:52.343Z,99.90
2019-02-11T23:23:21.542Z,99.90
2019-02-11T23:25:52.023Z,99.90
2019-02-11T23:28:22.677Z,99.90
2019-02-11T23:30:51.433Z,99.90
2019-02-11T23:33:20.183Z,99.90
2019-02-11T23:35:48.938Z,99.90
2019-02-11T23:38:17.689Z,99.90
2019-02-11T23:40:46.448Z,99.90
2019-02-11T23:43:15.366Z,99.90
2019-02-11T23:45:44.273Z,99.90
2019-02-11T23:48:13.032Z,99.90
2019-02-11T23:50:42.182Z,99.90
2019-02-11T23:53:11.382Z,99.90
2019-02-11T23:55:40.147Z,99.90
2019-02-11T23:58:08.923Z,99.90
